Time;durP1;ratioP1;P1;durP2;ratioP2;P2;SDS_P1;SDS_P2;PMS_P1;PMS_P2;Temp;Humidity;BMP_temperature;BMP_pressure;BME280_temperature;BME280_humidity;BME280_pressure;Samples;Min_cycle;Max_cycle;Signal;HPM_P1;HPM_P2
2022/05/05 00:01:42;;;;;;;9.35;8.55;;;12.30;99.90;;;;;;4932685;29;20083;-77
2022/05/05 00:04:09;;;;;;;10.25;9.40;;;12.40;99.90;;;;;;4933486;29;20024;-76
2022/05/05 00:06:36;;;;;;;10.10;9.20;;;12.40;99.90;;;;;;4934697;29;20023;-75
2022/05/05 00:09:02;;;;;;;10.57;9.38;;;12.70;99.90;;;;;;4935119;29;20027;-76
2022/05/05 00:14:24;;;;;;;10.88;9.65;;;12.70;99.90;;;;;;4934541;29;20130;-76
2022/05/05 00:16:53;;;;;;;11.10;10.02;;;12.60;99.90;;;;;;4925231;29;20474;-77
2022/05/05 00:19:19;;;;;;;11.70;10.38;;;12.50;99.90;;;;;;4931612;29;20452;-76
2022/05/05 00:21:45;;;;;;;12.60;10.60;;;12.70;99.90;;;;;;4929571;29;20062;-76
2022/05/05 00:24:11;;;;;;;12.48;11.27;;;12.70;99.90;;;;;;4933076;29;20036;-76
2022/05/05 00:26:37;;;;;;;12.82;10.68;;;12.70;99.90;;;;;;4938520;29;20031;-76
2022/05/05 00:29:02;;;;;;;14.30;11.43;;;12.50;99.90;;;;;;4932675;28;20039;-77
2022/05/05 00:31:28;;;;;;;12.82;11.13;;;12.40;99.90;;;;;;4926616;29;20035;-77
2022/05/05 00:33:53;;;;;;;12.38;11.18;;;12.30;99.90;;;;;;4930740;29;20036;-77
2022/05/05 00:36:19;;;;;;;14.40;11.40;;;12.20;99.90;;;;;;4937460;29;20020;-75
2022/05/05 00:38:44;;;;;;;12.10;11.00;;;12.20;99.90;;;;;;4938296;29;20039;-77
2022/05/05 00:41:10;;;;;;;12.27;11.23;;;12.20;99.90;;;;;;4940172;28;20032;-77
2022/05/05 00:43:36;;;;;;;15.02;11.55;;;12.20;99.90;;;;;;4936204;29;20047;-76
2022/05/05 00:46:03;;;;;;;15.38;11.55;;;12.20;99.90;;;;;;4936367;29;20039;-77
2022/05/05 00:48:29;;;;;;;13.48;11.02;;;12.20;99.90;;;;;;4935952;29;20027;-75
2022/05/05 00:50:55;;;;;;;13.98;12.68;;;12.20;99.90;;;;;;4937385;29;20034;-77
2022/05/05 00:53:21;;;;;;;12.77;11.55;;;12.20;99.90;;;;;;4932585;29;20063;-77
2022/05/05 00:55:51;;;;;;;13.88;11.70;;;12.20;99.90;;;;;;4939187;29;20024;-77
2022/05/05 00:58:18;;;;;;;14.02;12.05;;;12.20;99.90;;;;;;4934349;29;20484;-76
2022/05/05 01:00:44;;;;;;;14.80;12.30;;;12.20;99.90;;;;;;4937185;29;20114;-76
2022/05/05 01:03:11;;;;;;;13.93;11.57;;;12.10;99.90;;;;;;4936299;29;20028;-76
2022/05/05 01:05:38;;;;;;;13.77;12.32;;;12.10;99.90;;;;;;4931817;29;20062;-75
2022/05/05 01:08:05;;;;;;;13.90;12.45;;;12.10;99.90;;;;;;4935408;29;20028;-76
2022/05/05 01:10:31;;;;;;;13.43;12.30;;;12.10;99.90;;;;;;4930632;29;20032;-76
2022/05/05 01:12:57;;;;;;;14.25;12.65;;;12.10;99.90;;;;;;4933808;29;20531;-75
2022/05/05 01:15:22;;;;;;;14.50;12.63;;;12.10;99.90;;;;;;4945794;28;20028;-76
2022/05/05 01:17:48;;;;;;;15.18;12.85;;;12.10;99.90;;;;;;4936544;29;20063;-75
2022/05/05 01:20:19;;;;;;;15.65;12.70;;;12.20;99.90;;;;;;4933232;29;20039;-76
2022/05/05 01:22:45;;;;;;;;;;;12.20;99.90;;;;;;4934639;29;20035;-76
2022/05/05 01:28:10;;;;;;;21.42;13.85;;;12.20;99.90;;;;;;4930083;29;20149;-76
2022/05/05 01:30:38;;;;;;;;;;;12.20;99.90;;;;;;4935513;29;20031;-76
2022/05/05 01:33:21;;;;;;;16.50;13.23;;;12.20;99.90;;;;;;4934794;29;19918;-77
2022/05/05 01:35:49;;;;;;;15.00;13.38;;;12.20;99.90;;;;;;4932708;29;20392;-76
2022/05/05 01:38:17;;;;;;;17.55;14.10;;;12.20;99.90;;;;;;4934293;29;20028;-76
2022/05/05 01:40:46;;;;;;;15.50;12.13;;;12.20;99.90;;;;;;4937897;29;20047;-76
2022/05/05 01:43:15;;;;;;;14.10;12.80;;;12.20;99.90;;;;;;4933245;29;20062;-75
2022/05/05 01:45:42;;;;;;;15.80;14.30;;;12.20;99.90;;;;;;4933880;29;20115;-76
2022/05/05 01:48:08;;;;;;;15.52;13.95;;;12.20;99.90;;;;;;4934672;29;20035;-76
2022/05/05 01:50:34;;;;;;;20.35;13.80;;;12.10;99.90;;;;;;4933494;29;20503;-76
2022/05/05 01:53:01;;;;;;;16.40;14.25;;;12.20;99.90;;;;;;4938829;29;20119;-76
2022/05/05 01:55:27;;;;;;;18.00;15.48;;;12.10;99.90;;;;;;4935736;29;20028;-76
2022/05/05 01:57:54;;;;;;;18.63;13.57;;;12.10;99.90;;;;;;4921386;29;20031;-76
2022/05/05 02:00:20;;;;;;;19.55;14.27;;;12.10;99.90;;;;;;4934081;29;20032;-76
2022/05/05 02:02:46;;;;;;;16.92;14.93;;;12.10;99.90;;;;;;4935316;29;20035;-76
2022/05/05 02:05:13;;;;;;;21.40;14.77;;;12.10;99.90;;;;;;4933490;29;20028;-77
2022/05/05 02:07:40;;;;;;;21.85;15.57;;;12.10;99.90;;;;;;4934934;29;20028;-76
2022/05/05 02:10:07;;;;;;;32.72;16.48;;;12.10;99.90;;;;;;4936965;29;20028;-77
2022/05/05 02:12:36;;;;;;;23.17;14.50;;;12.10;99.90;;;;;;4936602;29;20050;-75
2022/05/05 02:15:03;;;;;;;16.02;14.40;;;12.10;99.90;;;;;;4936095;29;20023;-76
2022/05/05 02:17:29;;;;;;;15.50;13.93;;;12.10;99.90;;;;;;4937831;29;20128;-77
2022/05/05 02:19:54;;;;;;;16.20;14.65;;;12.20;99.90;;;;;;4938391;29;20115;-76
2022/05/05 02:22:20;;;;;;;19.67;14.73;;;12.10;99.90;;;;;;4937311;29;20432;-76
2022/05/05 02:24:45;;;;;;;17.50;14.07;;;12.00;99.90;;;;;;4937043;29;20024;-76
2022/05/05 02:27:11;;;;;;;16.00;14.02;;;12.00;99.90;;;;;;4933971;29;20031;-75
2022/05/05 02:29:36;;;;;;;15.85;13.75;;;12.00;99.90;;;;;;4935673;29;20115;-76
2022/05/05 02:32:02;;;;;;;14.90;13.45;;;11.90;99.90;;;;;;4936913;29;20039;-76
2022/05/05 02:34:28;;;;;;;13.88;12.23;;;11.90;99.90;;;;;;4935735;29;20027;-76
2022/05/05 02:39:37;;;;;;;17.17;13.25;;;11.90;99.90;;;;;;4936355;29;20082;-77
2022/05/05 02:42:03;;;;;;;16.70;13.05;;;11.90;99.90;;;;;;4934699;29;20028;-76
2022/05/05 02:44:29;;;;;;;17.83;13.07;;;11.90;99.90;;;;;;4933706;29;20035;-76
2022/05/05 02:46:55;;;;;;;14.85;13.45;;;11.80;99.90;;;;;;4931791;29;20036;-76
2022/05/05 02:49:20;;;;;;;13.95;12.65;;;11.80;99.90;;;;;;4935082;29;20500;-75
2022/05/05 02:51:46;;;;;;;14.70;13.20;;;11.70;99.90;;;;;;4934345;29;20119;-76
2022/05/05 02:56:56;;;;;;;14.68;13.25;;;11.60;99.90;;;;;;4931022;29;20084;-76
2022/05/05 02:59:21;;;;;;;19.52;13.10;;;11.60;99.90;;;;;;4931441;29;20444;-77
2022/05/05 03:01:47;;;;;;;15.00;13.50;;;11.50;99.90;;;;;;4933094;29;20024;-75
2022/05/05 03:04:12;;;;;;;14.20;12.90;;;11.50;99.90;;;;;;4930487;29;20040;-77
2022/05/05 03:06:38;;;;;;;17.77;14.18;;;11.40;99.90;;;;;;4934878;29;20032;-75
2022/05/05 03:09:04;;;;;;;20.67;13.80;;;11.40;99.90;;;;;;4932975;29;20031;-76
2022/05/05 03:11:29;;;;;;;13.07;11.88;;;11.40;99.90;;;;;;4938004;29;20491;-76
2022/05/05 03:13:55;;;;;;;16.95;14.27;;;11.40;99.90;;;;;;4936743;28;20032;-76
2022/05/05 03:16:20;;;;;;;16.38;14.07;;;11.30;99.90;;;;;;4933955;29;20024;-76
2022/05/05 03:18:46;;;;;;;17.92;14.70;;;11.30;99.90;;;;;;4933234;29;20102;-77
2022/05/05 03:21:11;;;;;;;17.35;14.85;;;11.20;99.90;;;;;;4936105;29;20055;-76
2022/05/05 03:23:37;;;;;;;17.15;15.30;;;11.20;99.90;;;;;;4933145;29;20027;-76
2022/05/05 03:26:02;;;;;;;14.55;13.05;;;11.30;99.90;;;;;;4930309;29;20035;-77
2022/05/05 03:28:28;;;;;;;14.38;12.93;;;11.20;99.90;;;;;;4932836;29;20091;-76
2022/05/05 03:30:53;;;;;;;14.80;13.40;;;11.20;99.90;;;;;;4933276;29;20031;-76
2022/05/05 03:33:19;;;;;;;19.00;12.63;;;11.20;99.90;;;;;;4933802;29;20036;-76
2022/05/05 03:35:45;;;;;;;20.67;13.82;;;11.20;99.90;;;;;;4933884;29;20035;-76
2022/05/05 03:38:10;;;;;;;24.75;13.52;;;11.10;99.90;;;;;;4933443;29;20424;-77
2022/05/05 03:40:36;;;;;;;21.38;14.18;;;11.10;99.90;;;;;;4932758;29;20028;-77
2022/05/05 03:43:01;;;;;;;24.65;14.27;;;11.20;99.90;;;;;;4933547;29;20024;-77
2022/05/05 03:45:27;;;;;;;19.17;16.33;;;11.20;99.90;;;;;;4934761;28;20519;-76
2022/05/05 03:47:53;;;;;;;21.33;14.90;;;11.30;99.90;;;;;;4931221;29;20059;-76
2022/05/05 03:50:18;;;;;;;19.45;14.82;;;11.30;99.90;;;;;;4933941;29;20097;-75
2022/05/05 03:52:44;;;;;;;16.25;14.63;;;11.40;99.90;;;;;;4935051;29;20035;-76
2022/05/05 03:55:09;;;;;;;15.98;14.27;;;11.60;99.90;;;;;;4931320;29;20023;-75
2022/05/05 03:57:35;;;;;;;16.33;13.75;;;11.60;99.90;;;;;;4931519;29;20051;-76
2022/05/05 04:00:00;;;;;;;16.80;12.82;;;11.70;99.90;;;;;;4931241;29;20083;-77
2022/05/05 04:02:26;;;;;;;21.42;14.85;;;11.70;99.90;;;;;;4930185;29;20032;-76
2022/05/05 04:04:51;;;;;;;16.45;14.77;;;11.70;99.90;;;;;;4931211;29;20403;-75
2022/05/05 04:07:17;;;;;;;15.23;13.65;;;11.80;99.90;;;;;;4931912;29;20049;-77
2022/05/05 04:09:42;;;;;;;17.17;14.80;;;11.90;99.90;;;;;;4932189;29;20032;-76
2022/05/05 04:12:08;;;;;;;15.77;13.85;;;12.00;99.90;;;;;;4931454;29;20039;-77
2022/05/05 04:14:34;;;;;;;19.23;14.25;;;12.10;99.90;;;;;;4933695;29;20031;-76
2022/05/05 04:17:00;;;;;;;16.75;14.18;;;12.10;99.90;;;;;;4929670;29;20031;-77
2022/05/05 04:19:26;;;;;;;21.17;15.27;;;12.20;99.90;;;;;;4925683;29;20476;-76
2022/05/05 04:21:52;;;;;;;17.13;14.13;;;12.30;99.90;;;;;;4928143;29;20923;-77
2022/05/05 04:24:17;;;;;;;15.93;14.30;;;12.40;99.90;;;;;;4931832;29;20027;-76
2022/05/05 04:26:44;;;;;;;15.57;12.73;;;12.50;99.90;;;;;;4930358;29;20041;-77
2022/05/05 04:29:10;;;;;;;14.88;13.30;;;12.30;99.90;;;;;;4932140;29;20028;-77
2022/05/05 04:31:36;;;;;;;15.23;13.63;;;12.50;99.90;;;;;;4928297;29;20122;-76
2022/05/05 04:34:03;;;;;;;16.33;12.95;;;12.70;99.90;;;;;;4929220;29;20114;-76
2022/05/05 04:36:34;;;;;;;18.38;14.40;;;12.80;99.90;;;;;;4930388;29;20078;-76
2022/05/05 04:39:03;;;;;;;17.48;13.82;;;12.70;99.90;;;;;;4927936;29;20028;-77
2022/05/05 04:41:29;;;;;;;15.63;14.13;;;12.60;99.90;;;;;;4927658;29;20145;-75
2022/05/05 04:43:54;;;;;;;15.55;13.52;;;12.50;99.90;;;;;;4935271;29;20730;-75
2022/05/05 04:46:20;;;;;;;15.65;14.05;;;12.40;99.90;;;;;;4931934;29;20051;-75
2022/05/05 04:48:46;;;;;;;16.35;14.02;;;12.30;99.90;;;;;;4932571;29;20034;-77
2022/05/05 04:51:11;;;;;;;18.45;14.63;;;12.40;99.90;;;;;;4928775;29;20035;-77
2022/05/05 04:53:37;;;;;;;18.35;15.40;;;12.40;99.90;;;;;;4931358;29;20039;-76
2022/05/05 04:56:03;;;;;;;19.65;14.90;;;12.40;99.90;;;;;;4933695;29;20035;-76
2022/05/05 04:58:31;;;;;;;15.68;14.00;;;12.50;99.90;;;;;;4932335;29;20031;-76
2022/05/05 05:00:57;;;;;;;17.65;15.85;;;12.50;99.90;;;;;;4931674;29;20108;-75
2022/05/05 05:03:39;;;;;;;15.98;13.88;;;12.30;99.90;;;;;;4933375;29;20689;-75
2022/05/05 05:06:09;;;;;;;16.35;13.63;;;12.20;99.90;;;;;;4930272;29;20135;-76
2022/05/05 05:08:35;;;;;;;16.45;14.07;;;12.20;99.90;;;;;;4931287;29;20024;-77
2022/05/05 05:11:01;;;;;;;18.38;13.98;;;12.20;99.90;;;;;;4930241;29;20071;-76
2022/05/05 05:13:27;;;;;;;16.02;14.43;;;12.10;99.90;;;;;;4932938;29;20122;-76
2022/05/05 05:15:52;;;;;;;15.40;13.98;;;12.20;99.90;;;;;;4936800;29;20135;-77
2022/05/05 05:18:18;;;;;;;17.23;14.65;;;12.30;99.90;;;;;;4932506;29;20539;-76
2022/05/05 05:20:43;;;;;;;21.77;15.20;;;12.30;99.90;;;;;;4933448;29;20035;-76
2022/05/05 05:23:09;;;;;;;16.08;13.55;;;12.40;99.90;;;;;;4934254;29;20031;-77
2022/05/05 05:25:35;;;;;;;23.70;15.07;;;12.40;99.90;;;;;;4935244;29;20575;-76
2022/05/05 05:28:01;;;;;;;17.38;14.52;;;12.40;99.90;;;;;;4932862;29;20408;-76
2022/05/05 05:30:27;;;;;;;16.33;14.68;;;12.40;99.90;;;;;;4930783;29;20024;-78
2022/05/05 05:32:52;;;;;;;18.50;13.05;;;12.30;99.90;;;;;;4932291;29;20035;-77
2022/05/05 05:35:18;;;;;;;15.45;13.93;;;12.30;99.90;;;;;;4936207;29;20024;-76
2022/05/05 05:37:44;;;;;;;16.17;14.68;;;12.30;99.90;;;;;;4934619;29;20514;-77
2022/05/05 05:40:10;;;;;;;19.67;14.77;;;12.30;99.90;;;;;;4935183;29;20091;-76
2022/05/05 05:42:35;;;;;;;16.27;14.65;;;12.40;99.90;;;;;;4936148;29;20030;-76
2022/05/05 05:45:01;;;;;;;16.27;14.50;;;12.40;99.90;;;;;;4934957;29;20158;-76
2022/05/05 05:47:26;;;;;;;16.33;14.60;;;12.50;99.90;;;;;;4933557;29;20038;-77
2022/05/05 05:49:52;;;;;;;18.63;15.15;;;12.50;99.90;;;;;;4934676;29;20024;-77
2022/05/05 05:52:17;;;;;;;17.42;15.10;;;12.50;99.90;;;;;;4942124;29;20087;-76
2022/05/05 05:54:43;;;;;;;14.93;13.50;;;12.50;99.90;;;;;;4934900;29;20028;-76
2022/05/05 05:57:08;;;;;;;17.52;14.13;;;12.50;99.90;;;;;;4935161;29;20461;-76
2022/05/05 05:59:34;;;;;;;15.27;13.75;;;12.40;99.90;;;;;;4933901;29;20111;-76
2022/05/05 06:04:44;;;;;;;15.13;13.63;;;12.50;99.90;;;;;;4934543;29;20042;-77
2022/05/05 06:07:10;;;;;;;21.00;14.73;;;12.90;99.90;;;;;;4934633;29;20039;-77
2022/05/05 06:09:35;;;;;;;15.13;13.52;;;13.10;99.90;;;;;;4932963;29;20047;-77
2022/05/05 06:12:03;;;;;;;22.80;13.80;;;13.20;99.90;;;;;;4934161;29;20090;-77
2022/05/05 06:14:29;;;;;;;16.38;13.90;;;13.30;99.90;;;;;;4936039;29;20030;-76
2022/05/05 06:16:54;;;;;;;15.93;13.18;;;13.50;99.90;;;;;;4932774;29;20032;-75
2022/05/05 06:19:20;;;;;;;15.38;13.88;;;13.50;99.90;;;;;;4935418;29;20062;-75
2022/05/05 06:21:46;;;;;;;14.38;12.88;;;13.50;99.90;;;;;;4927658;29;20408;-75
2022/05/05 06:24:11;;;;;;;17.95;13.07;;;13.60;99.90;;;;;;4936925;29;20388;-76
2022/05/05 06:26:37;;;;;;;14.25;12.95;;;13.80;99.90;;;;;;4933156;29;20079;-76
2022/05/05 06:29:03;;;;;;;15.43;13.52;;;13.80;99.90;;;;;;4933377;29;20066;-76
2022/05/05 06:31:28;;;;;;;18.30;13.02;;;13.90;99.90;;;;;;4933088;29;20023;-76
2022/05/05 06:33:54;;;;;;;14.30;12.98;;;13.80;99.90;;;;;;4929852;29;20043;-76
2022/05/05 06:36:19;;;;;;;20.40;13.77;;;13.90;99.90;;;;;;4936597;29;20035;-76
2022/05/05 06:38:45;;;;;;;13.68;12.48;;;13.90;99.90;;;;;;4930616;29;20071;-75
2022/05/05 06:41:11;;;;;;;13.95;12.57;;;13.90;99.90;;;;;;4933575;29;20032;-76
2022/05/05 06:43:37;;;;;;;14.82;13.02;;;13.90;99.90;;;;;;4933437;29;20448;-76
2022/05/05 06:46:03;;;;;;;14.57;13.18;;;13.90;99.90;;;;;;4938356;29;20031;-76
2022/05/05 06:48:29;;;;;;;15.90;14.30;;;14.00;99.90;;;;;;4934746;29;20020;-76
2022/05/05 06:50:55;;;;;;;13.88;12.50;;;13.80;99.90;;;;;;4935170;29;20031;-77
2022/05/05 06:53:20;;;;;;;14.73;13.23;;;13.70;99.90;;;;;;4933273;29;20519;-75
2022/05/05 06:55:47;;;;;;;18.05;12.80;;;14.00;99.90;;;;;;4932200;29;20024;-76
2022/05/05 06:58:14;;;;;;;16.20;13.35;;;14.00;99.90;;;;;;4931172;29;20459;-75
2022/05/05 07:03:24;;;;;;;14.05;12.55;;;13.80;99.90;;;;;;4927022;29;20042;-76
2022/05/05 07:05:49;;;;;;;12.70;11.45;;;13.90;99.90;;;;;;4933599;29;20403;-75
2022/05/05 07:08:15;;;;;;;15.63;13.32;;;14.10;99.90;;;;;;4933374;29;20028;-76
2022/05/05 07:10:53;;;;;;;14.30;13.02;;;14.00;99.90;;;;;;4935028;29;20043;-75
2022/05/05 07:13:23;;;;;;;14.20;12.68;;;13.80;99.90;;;;;;4926495;29;20047;-75
2022/05/05 07:15:49;;;;;;;10.05;9.07;;;13.80;99.90;;;;;;4934087;29;20484;-74
2022/05/05 07:18:15;;;;;;;11.55;10.02;;;13.80;99.90;;;;;;4933951;29;20043;-75
2022/05/05 07:20:40;;;;;;;11.32;10.32;;;13.80;99.90;;;;;;4932393;29;20432;-75
2022/05/05 07:23:11;;;;;;;11.77;9.13;;;13.80;99.90;;;;;;4932014;29;20055;-75
2022/05/05 07:25:37;;;;;;;10.25;9.35;;;14.30;99.90;;;;;;4928782;29;20154;-76
2022/05/05 07:28:03;;;;;;;10.32;9.25;;;14.00;99.90;;;;;;4932287;29;20118;-75
2022/05/05 07:30:28;;;;;;;9.65;8.75;;;14.00;99.90;;;;;;4931828;29;20448;-74
2022/05/05 07:32:54;;;;;;;9.35;8.15;;;14.10;99.90;;;;;;4936697;29;20027;-75
2022/05/05 07:35:20;;;;;;;14.27;10.27;;;14.50;99.90;;;;;;4932344;29;20039;-75
2022/05/05 07:37:45;;;;;;;10.07;8.00;;;14.80;99.90;;;;;;4930608;29;20495;-75
2022/05/05 07:40:11;;;;;;;9.55;8.52;;;14.60;99.90;;;;;;4932712;29;20035;-75
2022/05/05 07:42:37;;;;;;;11.70;8.45;;;14.50;99.90;;;;;;4933673;29;20123;-74
2022/05/05 07:45:04;;;;;;;8.73;8.02;;;14.40;99.90;;;;;;4932756;29;20532;-76
2022/05/05 07:47:30;;;;;;;17.60;8.68;;;14.40;99.90;;;;;;4929303;29;20530;-74
2022/05/05 07:49:55;;;;;;;10.02;9.00;;;14.40;99.90;;;;;;4933428;29;20093;-75
2022/05/05 07:52:21;;;;;;;9.80;8.98;;;14.60;99.90;;;;;;4929707;29;20115;-75
2022/05/05 07:54:46;;;;;;;8.60;7.90;;;14.60;99.90;;;;;;4930032;29;20059;-75
2022/05/05 07:57:13;;;;;;;9.02;8.23;;;14.80;99.90;;;;;;4930312;29;20031;-74
2022/05/05 07:59:40;;;;;;;9.52;8.70;;;14.80;99.90;;;;;;4934383;29;20520;-76
2022/05/05 08:02:13;;;;;;;9.20;8.35;;;14.80;99.90;;;;;;4931276;29;20031;-76
2022/05/05 08:04:43;;;;;;;8.95;8.05;;;14.80;99.90;;;;;;4934581;29;20477;-74
2022/05/05 08:07:09;;;;;;;9.93;8.82;;;14.70;99.90;;;;;;4931268;29;20023;-75
2022/05/05 08:09:35;;;;;;;10.13;9.15;;;14.70;99.90;;;;;;4935235;29;20027;-75
2022/05/05 08:12:00;;;;;;;12.25;10.38;;;14.80;99.90;;;;;;4931905;29;20036;-75
2022/05/05 08:14:27;;;;;;;11.02;9.90;;;14.80;99.90;;;;;;4930835;29;20027;-75
2022/05/05 08:16:53;;;;;;;13.13;9.00;;;14.50;99.90;;;;;;4929204;29;20531;-74
2022/05/05 08:19:20;;;;;;;12.63;8.98;;;14.40;99.90;;;;;;4926543;29;20436;-76
2022/05/05 08:21:46;;;;;;;10.70;9.73;;;14.40;99.90;;;;;;4930442;29;20019;-75
2022/05/05 08:29:40;;;;;;;11.27;10.10;;;14.80;99.90;;;;;;4930879;29;20364;-75
2022/05/05 08:32:06;;;;;;;12.32;10.82;;;14.70;99.90;;;;;;4939174;28;20040;-75
2022/05/05 08:34:31;;;;;;;11.88;10.77;;;14.70;99.90;;;;;;4924778;29;20024;-76
2022/05/05 08:36:57;;;;;;;11.57;10.52;;;15.30;99.90;;;;;;4932146;29;20061;-75
2022/05/05 08:39:22;;;;;;;12.45;9.55;;;15.50;99.90;;;;;;4924394;29;20086;-75
2022/05/05 08:41:48;;;;;;;11.95;10.85;;;15.50;99.90;;;;;;4932902;29;20027;-76
2022/05/05 08:44:14;;;;;;;11.75;10.38;;;15.20;99.90;;;;;;4933962;29;20038;-75
2022/05/05 08:46:40;;;;;;;12.05;10.45;;;15.50;99.90;;;;;;4931238;29;20035;-75
2022/05/05 08:49:06;;;;;;;11.07;10.05;;;15.50;99.90;;;;;;4932960;29;20115;-75
2022/05/05 08:51:41;;;;;;;11.50;10.50;;;15.70;99.90;;;;;;4929856;29;20020;-75
2022/05/05 08:54:07;;;;;;;11.00;9.77;;;16.40;99.90;;;;;;4931656;29;20031;-76
2022/05/05 08:56:33;;;;;;;10.60;9.60;;;16.20;99.90;;;;;;4934687;29;20127;-74
2022/05/05 08:58:59;;;;;;;13.38;11.27;;;16.40;99.90;;;;;;4933666;29;20123;-74
2022/05/05 09:01:26;;;;;;;12.10;11.10;;;16.40;99.90;;;;;;4933576;29;20484;-76
2022/05/05 09:03:51;;;;;;;13.32;12.32;;;15.70;99.90;;;;;;4926926;29;20485;-75
2022/05/05 09:06:17;;;;;;;12.88;11.77;;;15.50;99.90;;;;;;4934716;29;20107;-76
2022/05/05 09:08:45;;;;;;;13.07;11.73;;;15.20;99.90;;;;;;4934698;29;20555;-76
2022/05/05 09:11:18;;;;;;;14.40;12.73;;;15.30;99.90;;;;;;4934876;29;20042;-76
2022/05/05 09:13:43;;;;;;;12.50;11.40;;;15.20;99.90;;;;;;4937582;29;20078;-76
2022/05/05 09:16:10;;;;;;;14.63;13.27;;;15.30;99.90;;;;;;4935940;29;20448;-75
2022/05/05 09:18:36;;;;;;;14.52;13.05;;;15.10;99.90;;;;;;4932025;29;20023;-75
2022/05/05 09:21:04;;;;;;;13.25;11.98;;;15.20;99.90;;;;;;4934244;29;20147;-75
2022/05/05 09:23:36;;;;;;;15.07;12.60;;;15.20;99.90;;;;;;4936401;29;20047;-76
2022/05/05 09:26:04;;;;;;;13.93;12.73;;;15.40;99.90;;;;;;4936290;29;20031;-75
2022/05/05 09:28:32;;;;;;;14.57;11.98;;;15.40;99.90;;;;;;4929139;29;20058;-76
2022/05/05 09:31:06;;;;;;;15.10;13.65;;;15.40;99.90;;;;;;4937012;29;20059;-74
2022/05/05 09:33:35;;;;;;;12.68;11.52;;;15.60;99.90;;;;;;4933261;29;20086;-77
2022/05/05 09:36:02;;;;;;;14.35;12.85;;;15.80;99.90;;;;;;4942993;29;20106;-76
2022/05/05 09:38:47;;;;;;;13.45;12.23;;;15.90;99.90;;;;;;4939150;29;20118;-77
2022/05/05 09:41:12;;;;;;;15.02;12.13;;;15.90;99.90;;;;;;4930723;29;20042;-76
2022/05/05 09:43:38;;;;;;;13.15;11.85;;;16.10;99.90;;;;;;4939402;29;20019;-75
2022/05/05 09:46:23;;;;;;;12.60;11.32;;;16.00;99.90;;;;;;4932999;29;20118;-77
2022/05/05 09:49:12;;;;;;;12.23;11.13;;;16.40;99.90;;;;;;4938631;29;20030;-78
2022/05/05 09:57:39;;;;;;;12.88;11.68;;;16.30;99.90;;;;;;4937579;29;20507;-78
2022/05/05 09:57:40;;;;;;;14.85;12.85;;;16.40;99.90;;;;;;4933544;29;20469;-78
2022/05/05 10:00:19;;;;;;;15.35;11.68;;;16.60;99.90;;;;;;4938508;29;20024;-79
2022/05/05 10:05:32;;;;;;;14.43;12.32;;;17.00;99.90;;;;;;4940036;29;20106;-78
2022/05/05 10:07:57;;;;;;;16.23;13.07;;;17.50;99.90;;;;;;4940667;29;20064;-77
2022/05/05 10:10:24;;;;;;;18.08;13.27;;;17.10;99.90;;;;;;4940273;29;20028;-79
2022/05/05 10:12:51;;;;;;;13.60;12.38;;;16.80;99.90;;;;;;4940435;29;20042;-77
2022/05/05 10:15:17;;;;;;;15.77;14.25;;;17.30;99.90;;;;;;4939514;29;20047;-78
2022/05/05 10:17:44;;;;;;;16.02;14.43;;;16.90;99.90;;;;;;4940602;29;20024;-77
2022/05/05 10:20:12;;;;;;;15.95;14.45;;;16.50;99.90;;;;;;4939429;29;20035;-78
2022/05/05 10:23:22;;;;;;;16.42;15.02;;;16.30;99.90;;;;;;4940847;29;20035;-78
2022/05/05 10:25:52;;;;;;;16.42;14.93;;;16.30;99.90;;;;;;4891238;29;20056;-78
2022/05/05 10:28:36;;;;;;;20.23;15.63;;;16.40;99.90;;;;;;4877841;29;20624;-77
2022/05/05 10:31:01;;;;;;;15.60;13.98;;;16.50;99.90;;;;;;4926433;29;20489;-77
2022/05/05 10:34:00;;;;;;;14.75;13.30;;;16.50;99.90;;;;;;4941897;29;20032;-78
2022/05/05 10:36:29;;;;;;;15.45;13.77;;;16.60;99.90;;;;;;4935488;29;20036;-78
2022/05/05 10:38:56;;;;;;;14.90;13.60;;;16.70;99.90;;;;;;4942039;29;20492;-79
2022/05/05 10:41:34;;;;;;;15.52;14.13;;;16.90;99.90;;;;;;4939686;29;20035;-79
2022/05/05 10:44:19;;;;;;;19.42;14.13;;;16.90;99.90;;;;;;4939781;29;20077;-77
2022/05/05 10:47:05;;;;;;;14.88;13.57;;;16.90;99.90;;;;;;4936480;29;20076;-78
2022/05/05 10:49:33;;;;;;;16.85;15.27;;;16.70;99.90;;;;;;4936886;29;20024;-78
2022/05/05 10:52:10;;;;;;;14.52;13.15;;;16.90;99.90;;;;;;4941468;29;20090;-78
2022/05/05 10:54:44;;;;;;;15.23;13.65;;;17.00;99.90;;;;;;4939645;29;20042;-79
2022/05/05 10:57:25;;;;;;;16.00;13.55;;;16.80;99.90;;;;;;4940872;29;20550;-78
2022/05/05 11:00:11;;;;;;;15.38;13.77;;;16.70;99.90;;;;;;4939011;29;20034;-77
2022/05/05 11:02:38;;;;;;;14.43;13.13;;;16.80;99.90;;;;;;4932047;29;20032;-78
2022/05/05 11:05:27;;;;;;;15.82;14.15;;;16.70;99.90;;;;;;4936654;29;20027;-78
2022/05/05 11:07:54;;;;;;;14.73;13.43;;;16.60;99.90;;;;;;4938730;29;20166;-78
2022/05/05 11:13:39;;;;;;;19.33;14.73;;;16.40;99.90;;;;;;4944260;29;20035;-77
2022/05/05 11:22:18;;;;;;;17.25;15.75;;;16.30;99.90;;;;;;4940336;29;20567;-79
2022/05/05 11:24:47;;;;;;;;;;;16.00;99.90;;;;;;4941080;29;20043;-78
2022/05/05 11:27:15;;;;;;;17.50;15.80;;;16.00;99.90;;;;;;4941704;29;19937;-78
2022/05/05 11:29:50;;;;;;;18.90;16.08;;;15.80;99.90;;;;;;4940700;29;20034;-78
2022/05/05 11:32:15;;;;;;;18.75;15.93;;;15.80;99.90;;;;;;4938346;29;20094;-79
2022/05/05 11:34:41;;;;;;;17.27;15.77;;;15.80;99.90;;;;;;4937898;29;20035;-78
2022/05/05 11:37:08;;;;;;;19.20;17.35;;;15.60;99.90;;;;;;4935886;29;20114;-78
2022/05/05 11:39:36;;;;;;;18.88;17.08;;;15.80;99.90;;;;;;4937895;29;20023;-78
2022/05/05 11:42:02;;;;;;;19.33;17.55;;;15.60;99.90;;;;;;4936422;29;20020;-78
2022/05/05 11:44:28;;;;;;;19.45;17.50;;;15.60;99.90;;;;;;4936864;29;20091;-77
2022/05/05 11:47:14;;;;;;;18.42;16.45;;;15.70;99.90;;;;;;4936516;29;20032;-77
2022/05/05 11:49:46;;;;;;;18.10;16.60;;;15.40;99.90;;;;;;4930993;29;20027;-77
2022/05/05 11:52:19;;;;;;;19.98;18.15;;;15.40;99.90;;;;;;4936599;29;20047;-78
2022/05/05 11:54:47;;;;;;;20.05;18.30;;;15.30;99.90;;;;;;4936121;29;20057;-79
2022/05/05 11:57:29;;;;;;;23.00;20.77;;;15.30;99.90;;;;;;4936291;29;20031;-79
2022/05/05 12:02:39;;;;;;;22.02;19.95;;;15.30;99.90;;;;;;4932916;29;20502;-77
2022/05/05 12:05:05;;;;;;;23.45;20.23;;;15.40;99.90;;;;;;4935873;29;20028;-77
2022/05/05 12:07:31;;;;;;;23.17;20.95;;;15.20;99.90;;;;;;4938495;29;20111;-78
2022/05/05 12:10:02;;;;;;;24.05;21.58;;;15.20;99.90;;;;;;4938130;29;20063;-79
2022/05/05 12:12:30;;;;;;;23.77;21.38;;;15.20;99.90;;;;;;4938546;29;20047;-79
2022/05/05 12:14:58;;;;;;;25.10;22.50;;;15.20;99.90;;;;;;4938326;29;20035;-79
2022/05/05 12:17:43;;;;;;;23.75;21.45;;;15.10;99.90;;;;;;4931190;29;20047;-78
2022/05/05 12:20:15;;;;;;;25.85;23.15;;;15.10;99.90;;;;;;4937483;29;20023;-79
2022/05/05 12:22:42;;;;;;;24.58;22.00;;;15.10;99.90;;;;;;4939085;29;20031;-79
2022/05/05 12:25:15;;;;;;;24.60;22.17;;;15.10;99.90;;;;;;4938026;29;20056;-79
2022/05/05 12:27:44;;;;;;;25.95;23.23;;;15.10;99.90;;;;;;4938475;29;20028;-79
2022/05/05 12:30:12;;;;;;;27.60;22.35;;;15.10;99.90;;;;;;4938654;29;20370;-78
2022/05/05 12:32:53;;;;;;;23.80;21.15;;;15.30;99.90;;;;;;4939073;29;20031;-78
2022/05/05 12:35:31;;;;;;;27.38;23.92;;;15.20;99.90;;;;;;4936553;29;20063;-77
2022/05/05 12:37:59;;;;;;;31.52;24.30;;;15.20;99.90;;;;;;4939620;29;20519;-77
2022/05/05 12:40:24;;;;;;;26.20;23.33;;;15.30;99.90;;;;;;4938904;29;20023;-78
2022/05/05 12:42:50;;;;;;;24.30;21.85;;;15.20;99.90;;;;;;4938113;29;20071;-79
2022/05/05 12:45:27;;;;;;;25.15;21.42;;;15.30;99.90;;;;;;4934317;29;20024;-78
2022/05/05 12:47:54;;;;;;;24.58;21.98;;;15.10;99.90;;;;;;4940236;29;20031;-78
2022/05/05 12:50:31;;;;;;;27.33;23.75;;;15.10;99.90;;;;;;4931183;29;20044;-78
2022/05/05 13:01:22;;;;;;;24.48;21.35;;;15.80;99.90;;;;;;4939713;29;20079;-79
2022/05/05 13:03:48;;;;;;;25.73;21.33;;;15.90;99.90;;;;;;4933008;29;20035;-79
2022/05/05 13:06:14;;;;;;;27.85;20.85;;;16.10;99.90;;;;;;4937199;29;20086;-77
2022/05/05 13:08:40;;;;;;;23.83;21.33;;;16.00;99.90;;;;;;4936343;29;20115;-78
2022/05/05 13:11:06;;;;;;;26.35;22.60;;;15.70;99.90;;;;;;4939136;29;20023;-79
2022/05/05 13:13:31;;;;;;;25.38;20.70;;;15.70;99.90;;;;;;4938957;29;20110;-79
2022/05/05 13:15:57;;;;;;;23.77;20.95;;;15.90;99.90;;;;;;4937651;29;20103;-78
2022/05/05 13:18:23;;;;;;;24.45;21.13;;;16.10;99.90;;;;;;4936348;29;20099;-78
2022/05/05 13:20:48;;;;;;;22.40;20.05;;;15.90;99.90;;;;;;4939596;29;20027;-79